Impacts TAF Board
For situational awareness. Not to be used for flight planning purposes.
IDs:

KOLM - Olympia Rgnl, WA, US

Issued at 0528 UTC 22 Oct 2021
Updated at 0626 UTC 22 Oct 2021
Potential Impact None Slight Moderate High
Time0554Z 22/07Z 22/08Z 22/09Z 22/10Z 22/11Z 22/12Z 22/13Z 22/14Z 22/15Z 22/16Z 22/17Z 22/18Z 22/19Z>>
Type OBS PRVL PRVL PRVL PRVL PRVL PRVL PRVL PRVL PRVL PRVL PRVL PRVL PRVL
VIS 3 4 6 6 6 >6 >6 >6 >6 >6 >6 >6 >6 >6
CIG 70 60 15 15 15 20 20 20 20 20 20 20 20 20
Cover OVC OVC OVC OVC OVC OVC OVC OVC OVC OVC OVC OVC OVC OVC
FltCat MVFR MVFR MVFR MVFR MVFR MVFR MVFR MVFR MVFR MVFR MVFR MVFR MVFR MVFR
WX RA BR RA BR -RA BR -RA BR -RA BR -SHRA -SHRA -SHRA -SHRA -SHRA -SHRA -SHRA -SHRA -SHRA
WDir VRB 170 200 200 200 190 190 190 190 190 190 190 200 200
WSpd 0 6 5 5 5 5 5 5 5 5 5 5 7 7
WGst -- -- -- -- -- -- -- -- -- -- -- -- -- --
Raw TAF
KOLM 220528Z 2206/2306 17006KT 4SM RA BR SCT015 OVC060
  FM220800 20005KT 6SM -RA BR OVC015
  FM221100 19005KT P6SM -SHRA OVC020
  FM221800 20007KT P6SM -SHRA BKN020 OVC040
  FM230300 20004KT P6SM VCSH BKN040


Raw METAR
KOLM 220554Z AUTO 00000KT 3SM RA BR FEW014 SCT060 OVC070 12/12 A2979 RMK AO2 SLP088 P0019 60061 T01220117 10144 20122 53000
KOLM 220454Z AUTO 16004KT 4SM RA BR OVC070 12/11 A2978 RMK AO2 SLP084 P0011 T01220111
KOLM 220354Z AUTO 19006KT 6SM -RA BR OVC075 12/12 A2977 RMK AO2 SLP082 P0014 T01220117

METAR Board
Radar Display
Forecast Discussion
For situational awareness. Not to be used for flight planning purposes.